Flight Track Log - Related Links

Times and Time Zones

All times are in EDT time to prevent confusion due to time zone crossing. See the N200NK flight status page for this flight to view local times or setup timezone preferences in your user account.

Time Position Orientation Groundspeed Altitude Reporting Facility
EDT Latitude Longitude Course Direction KTS MPH feet Rate Location/Type
Sun 11:59:51 AM 29.6411 -95.2811 168° South 119 137 400  Level Houston Center
Sun 12:00:28 PM 29.6217 -95.2764 168° South 120 138 1,500 1,537 Climbing Houston Center
Sun 12:01:13 PM 29.5983 -95.2678 162° South 146 168 2,500 1,514 Climbing Houston Center
Sun 12:02:15 PM 29.5575 -95.2519 161° South 155 178 4,200 1,536 Climbing Houston Center
Sun 12:03:18 PM 29.5206 -95.2250 148° Southeast 165 190 5,700 1,584 Climbing Houston Center
Sun 12:04:20 PM 29.4856 -95.1739 128° Southeast 172 198 7,500 1,548 Climbing Houston Center
Sun 12:05:22 PM 29.4458 -95.1425 145° Southeast 176 203 8,900 1,452 Climbing Houston Center
Sun 12:06:24 PM 29.4056 -95.1094 144° Southeast 178 205 10,500 1,597 Climbing Houston Center
Sun 12:07:26 PM 29.3700 -95.0806 145° Southeast 163 188 12,200 1,548 Climbing Houston Center
Sun 12:08:28 PM 29.3328 -95.0508 145° Southeast 161 185 13,700 1,548 Climbing Houston Center
Sun 12:09:30 PM 29.2856 -95.0131 145° Southeast 169 194 15,400 1,500 Climbing Houston Center
Sun 12:10:32 PM 29.2456 -94.9819 146° Southeast 172 198 16,800 1,161 Climbing Houston Center
Sun 12:11:34 PM 29.2067 -94.9500 144° Southeast 173 199 17,800 1,065 Climbing Houston Center
Sun 12:12:36 PM 29.1653 -94.9175 146° Southeast 177 204 19,000 1,065 Climbing Houston Center
Sun 12:13:38 PM 29.1250 -94.8847 145° Southeast 177 204 20,000 1,113 Climbing Houston Center
Sun 12:14:40 PM 29.0764 -94.8461 145° Southeast 177 204 21,300 1,113 Climbing Houston Center
Sun 12:15:42 PM 29.0369 -94.8131 144° Southeast 176 203 22,300 912 Climbing Houston Center
Sun 12:16:45 PM 28.9969 -94.7822 146° Southeast 174 200 23,200 816 Climbing Houston Center
Sun 12:17:47 PM 28.9558 -94.7497 145° Southeast 177 204 24,000 774 Climbing Houston Center
Sun 12:18:49 PM 28.9139 -94.7153 144° Southeast 183 211 24,800 726 Climbing Houston Center
Sun 12:19:51 PM 28.8706 -94.6808 145° Southeast 187 215 25,500 726 Climbing Houston Center
Sun 12:20:53 PM 28.8192 -94.6400 145° Southeast 188 216 26,300 677 Climbing Houston Center
Sun 12:21:55 PM 28.7758 -94.6067 146° Southeast 188 216 26,900 339 Climbing Houston Center
Sun 12:22:57 PM 28.7283 -94.5692 145° Southeast 200 230 27,000 48 Climbing Houston Center
Sun 12:23:59 PM 28.6725 -94.5264 146° Southeast 232 267 27,000  Level Houston Center
Sun 12:25:01 PM 28.6142 -94.4794 145° Southeast 250 288 27,000  Level Houston Center
Sun 12:26:03 PM 28.5536 -94.4317 145° Southeast 261 300 27,000  Level Houston Center
Sun 12:27:05 PM 28.4797 -94.3728 145° Southeast 268 308 27,000  Level Houston Center
Sun 12:28:07 PM 28.4214 -94.3269 145° Southeast 257 296 27,000  Level Houston Center
Sun 12:29:09 PM 28.3647 -94.2814 145° Southeast 252 290 27,000  Level Houston Center
Sun 12:30:11 PM 28.3069 -94.2364 146° Southeast 251 289 27,000  Level Houston Center
Sun 12:31:14 PM 28.2511 -94.1933 146° Southeast 245 282 27,000  Level Houston Center
Sun 12:32:16 PM 28.1947 -94.1478 145° Southeast 249 287 27,000  Level Houston Center
Sun 12:33:18 PM 28.1186 -94.1169 160° South 244 281 27,000  Level Houston Center
Sun 12:34:20 PM 28.0514 -94.1017 169° South 244 281 27,000  Level Houston Center
Sun 12:35:22 PM 27.9839 -94.0869 169° South 246 283 27,000  Level Houston Center
Sun 12:36:24 PM 27.9167 -94.0719 169° South 246 283 27,000  Level Houston Center
Sun 12:37:26 PM 27.8486 -94.0564 169° South 248 285 27,000  Level Houston Center
Sun 12:38:28 PM 27.7672 -94.0403 170° South 248 285 27,000  Level Houston Center
Sun 12:39:30 PM 27.7003 -94.0242 168° South 246 283 27,000  Level Houston Center
Sun 12:40:32 PM 27.6333 -94.0094 169° South 246 283 27,000  Level Houston Center
Sun 12:41:34 PM 27.5658 -93.9947 169° South 246 283 27,000  Level Houston Center
Sun 12:42:36 PM 27.4989 -93.9803 169° South 247 284 27,000  Level Houston Center
Sun 12:43:38 PM 27.4314 -93.9647 168° South 247 284 27,000  Level Houston Center
Sun 12:44:41 PM 27.3497 -93.9472 169° South 248 285 27,000  Level Houston Center
Sun 12:45:43 PM 27.2825 -93.9333 170° South 246 283 27,000  Level Houston Center
Sun 12:46:45 PM 27.2153 -93.9186 169° South 247 284 27,000  Level Houston Center
Sun 12:47:47 PM 27.1486 -93.9022 168° South 245 282 27,000  Level Houston Center
Sun 12:48:49 PM 27.0800 -93.8869 169° South 250 288 27,000  Level Houston Center
Sun 12:49:51 PM 27.0117 -93.8728 170° South 251 289 27,000  Level Houston Center
Sun 12:50:53 PM 26.9300 -93.8550 169° South 249 287 27,000  Level Houston Center
Sun 12:51:55 PM 26.8617 -93.8392 168° South 250 288 27,000  Level Houston Center
Sun 12:52:57 PM 26.7917 -93.8256 170° South 254 292 27,000  Level Houston Center
Sun 12:53:59 PM 26.7231 -93.8097 168° South 253 291 27,000  Level Houston Center
Sun 12:55:01 PM 26.6547 -93.7939 168° South 252 290 27,000  Level Houston Center
Sun 12:56:04 PM 26.5861 -93.7764 167° South 252 290 27,000  Level Houston Center
Sun 12:57:06 PM 26.5208 -93.7486 159° South 252 290 27,000  Level Houston Center
Sun 12:59:00 PM 26.4044 -93.6768 151° Southeast  Level FlightAware Approximate
Sun 01:06:00 PM 25.9754 -93.4133 151° Southeast  Level FlightAware Approximate
Sun 01:07:00 PM 25.9140 -93.3758 151° Southeast  Level FlightAware Approximate
Sun 01:08:00 PM 25.8527 -93.3384 151° Southeast  Level FlightAware Approximate
Sun 01:09:00 PM 25.7913 -93.3010 151° Southeast  Level FlightAware Approximate
Sun 01:10:00 PM 25.7299 -93.2636 151° Southeast  Level FlightAware Approximate
Sun 01:11:00 PM 25.6686 -93.2263 151° Southeast  Level FlightAware Approximate
Sun 01:12:00 PM 25.6072 -93.1890 151° Southeast  Level FlightAware Approximate
Sun 01:13:00 PM 25.5458 -93.1518 151° Southeast  Level FlightAware Approximate
Sun 01:14:00 PM 25.4844 -93.1146 151° Southeast  Level FlightAware Approximate
Sun 01:15:00 PM 25.4230 -93.0774 151° Southeast  Level FlightAware Approximate
Sun 01:16:00 PM 25.3615 -93.0403 151° Southeast  Level FlightAware Approximate
Sun 01:17:00 PM 25.2992 -93.0051 153° Southeast  Level FlightAware Approximate
Sun 01:18:00 PM 25.2367 -92.9704 153° Southeast  Level FlightAware Approximate
Sun 01:19:00 PM 25.1745 -92.9348 152° Southeast  Level FlightAware Approximate
Sun 01:20:00 PM 25.1130 -92.8979 152° Southeast  Level FlightAware Approximate
Sun 01:21:00 PM 25.0515 -92.8611 152° Southeast  Level FlightAware Approximate
Sun 01:22:00 PM 24.9899 -92.8244 152° Southeast  Level FlightAware Approximate
Sun 01:23:00 PM 24.9284 -92.7877 152° Southeast  Level FlightAware Approximate
Sun 01:24:00 PM 24.8668 -92.7510 152° Southeast  Level FlightAware Approximate
Sun 01:25:00 PM 24.8052 -92.7143 152° Southeast  Level FlightAware Approximate
Sun 01:26:00 PM 24.7436 -92.6777 152° Southeast  Level FlightAware Approximate
Sun 01:27:00 PM 24.6820 -92.6412 152° Southeast  Level FlightAware Approximate
Sun 01:28:00 PM 24.6204 -92.6046 152° Southeast  Level FlightAware Approximate
Sun 01:29:00 PM 24.5588 -92.5681 152° Southeast  Level FlightAware Approximate
Sun 01:30:00 PM 24.4970 -92.5320 157° South  Level FlightAware Approximate
Sun 01:31:00 PM 24.4324 -92.5024 157° South  Level FlightAware Approximate
Sun 01:32:00 PM 24.3678 -92.4729 157° South  Level FlightAware Approximate
Sun 01:33:00 PM 24.3032 -92.4435 157° South  Level FlightAware Approximate
Sun 01:34:00 PM 24.2385 -92.4140 157° South  Level FlightAware Approximate
Sun 01:35:00 PM 24.1739 -92.3846 157° South  Level FlightAware Approximate
Sun 01:36:00 PM 24.1092 -92.3552 157° South  Level FlightAware Approximate
Sun 01:37:00 PM 24.0446 -92.3258 157° South  Level FlightAware Approximate
Sun 01:38:00 PM 23.9799 -92.2965 157° South  Level FlightAware Approximate
Sun 01:39:00 PM 23.9153 -92.2672 158° South  Level FlightAware Approximate
Sun 01:40:00 PM 23.8506 -92.2379 158° South  Level FlightAware Approximate
Sun 01:41:00 PM 23.7859 -92.2087 158° South  Level FlightAware Approximate
Sun 01:42:00 PM 23.7212 -92.1796 158° South  Level FlightAware Approximate
Sun 01:43:00 PM 23.6565 -92.1505 158° South  Level FlightAware Approximate
Sun 01:44:00 PM 23.5918 -92.1215 158° South  Level FlightAware Approximate
Sun 01:45:00 PM 23.5271 -92.0925 158° South  Level FlightAware Approximate
Sun 01:46:00 PM 23.4623 -92.0635 158° South  Level FlightAware Approximate
Sun 01:47:00 PM 23.3976 -92.0345 158° South  Level FlightAware Approximate
Sun 01:48:00 PM 23.3328 -92.0056 158° South  Level FlightAware Approximate
Sun 01:49:00 PM 23.2680 -91.9767 158° South  Level FlightAware Approximate
Sun 01:50:00 PM 23.2033 -91.9478 158° South  Level FlightAware Approximate
Sun 01:51:00 PM 23.1385 -91.9190 158° South  Level FlightAware Approximate
Sun 01:52:00 PM 23.0739 -91.8898 157° South  Level FlightAware Approximate
Sun 01:53:00 PM 23.0092 -91.8607 157° South  Level FlightAware Approximate
Sun 01:54:00 PM 22.9446 -91.8316 157° South  Level FlightAware Approximate
Sun 01:55:00 PM 22.8799 -91.8026 157° South  Level FlightAware Approximate
Sun 01:56:00 PM 22.8152 -91.7735 158° South  Level FlightAware Approximate
Sun 01:57:00 PM 22.7504 -91.7449 158° South  Level FlightAware Approximate
Sun 01:58:00 PM 22.6855 -91.7165 158° South  Level FlightAware Approximate
Sun 01:59:00 PM 22.6206 -91.6881 158° South  Level FlightAware Approximate
Sun 02:00:00 PM 22.5557 -91.6598 158° South  Level FlightAware Approximate
Sun 02:01:00 PM 22.4908 -91.6314 158° South  Level FlightAware Approximate
Sun 02:02:00 PM 22.4259 -91.6031 158° South  Level FlightAware Approximate
Sun 02:03:00 PM 22.3610 -91.5749 158° South  Level FlightAware Approximate
Sun 02:04:00 PM 22.2961 -91.5466 158° South  Level FlightAware Approximate
Sun 02:05:00 PM 22.2311 -91.5184 158° South  Level FlightAware Approximate
Sun 02:06:00 PM 22.1662 -91.4902 158° South  Level FlightAware Approximate
Sun 02:07:00 PM 22.1013 -91.4620 158° South  Level FlightAware Approximate
Sun 02:08:00 PM 22.0363 -91.4339 158° South  Level FlightAware Approximate
Sun 02:09:00 PM 21.9714 -91.4057 158° South  Level FlightAware Approximate
Sun 02:10:00 PM 21.9064 -91.3776 158° South  Level FlightAware Approximate
Sun 02:11:00 PM 21.8415 -91.3496 158° South  Level FlightAware Approximate
Sun 02:12:00 PM 21.7765 -91.3215 158° South  Level FlightAware Approximate
Sun 02:13:00 PM 21.7115 -91.2935 158° South  Level FlightAware Approximate
Sun 02:14:00 PM 21.6466 -91.2655 158° South  Level FlightAware Approximate
Sun 02:15:00 PM 21.5816 -91.2376 158° South  Level FlightAware Approximate
Sun 02:16:00 PM 21.5166 -91.2096 158° South  Level FlightAware Approximate
Sun 02:17:00 PM 21.4516 -91.1817 158° South  Level FlightAware Approximate
Sun 02:18:00 PM 21.3866 -91.1538 158° South  Level FlightAware Approximate
Sun 02:19:00 PM 21.3216 -91.1259 158° South  Level FlightAware Approximate
Sun 02:20:00 PM 21.2558 -91.1006 161° South  Level FlightAware Approximate
Sun 02:21:00 PM 21.1895 -91.0765 161° South  Level FlightAware Approximate
Sun 02:22:00 PM 21.1232 -91.0524 161° South  Level FlightAware Approximate
Sun 02:23:00 PM 21.0581 -91.0250 158° South  Level FlightAware Approximate
Sun 02:24:00 PM 20.9930 -90.9973 158° South  Level FlightAware Approximate
Sun 02:25:00 PM 20.9280 -90.9696 158° South  Level FlightAware Approximate
Sun 02:26:00 PM 20.8630 -90.9419 158° South  Level FlightAware Approximate
Sun 02:27:00 PM 20.7980 -90.9142 158° South  Level FlightAware Approximate
Sun 02:28:00 PM 20.7329 -90.8866 158° South  Level FlightAware Approximate
Sun 02:29:00 PM 20.6679 -90.8590 158° South  Level FlightAware Approximate
Sun 02:30:00 PM 20.6028 -90.8314 158° South  Level FlightAware Approximate
Sun 02:31:00 PM 20.5378 -90.8038 158° South  Level FlightAware Approximate
Sun 02:32:00 PM 20.4727 -90.7763 158° South  Level FlightAware Approximate
Sun 02:33:00 PM 20.4076 -90.7488 158° South  Level FlightAware Approximate
Sun 02:34:00 PM 20.3426 -90.7213 158° South  Level FlightAware Approximate
Sun 02:35:00 PM 20.2775 -90.6938 158° South  Level FlightAware Approximate
Sun 02:36:00 PM 20.2124 -90.6664 158° South  Level FlightAware Approximate
Sun 02:37:00 PM 20.1473 -90.6390 158° South  Level FlightAware Approximate
Sun 02:38:00 PM 20.0823 -90.6116 158° South  Level FlightAware Approximate
Sun 02:39:00 PM 20.0172 -90.5842 158° South  Level FlightAware Approximate
Sun 02:40:00 PM 19.9521 -90.5568 158° South  Level FlightAware Approximate
Sun 02:41:00 PM 19.8870 -90.5295 158° South  Level FlightAware Approximate
Sun 02:42:00 PM 19.8219 -90.5022 158° South  Level FlightAware Approximate
Sun 02:43:00 PM 19.7609 -90.4659 150° Southeast  Level FlightAware Approximate
Sun 02:44:00 PM 19.7002 -90.4288 150° Southeast  Level FlightAware Approximate
Sun 02:45:00 PM 19.6395 -90.3917 150° Southeast  Level FlightAware Approximate
Sun 02:46:00 PM 19.5788 -90.3547 150° Southeast  Level FlightAware Approximate
Sun 02:47:00 PM 19.5182 -90.3177 150° Southeast  Level FlightAware Approximate
Sun 02:48:00 PM 19.4575 -90.2808 150° Southeast  Level FlightAware Approximate
Sun 02:49:00 PM 19.3968 -90.2438 150° Southeast  Level FlightAware Approximate
Sun 02:50:00 PM 19.3361 -90.2069 150° Southeast  Level FlightAware Approximate
Sun 02:51:00 PM 19.2753 -90.1700 150° Southeast  Level FlightAware Approximate
Sun 02:52:00 PM 19.2146 -90.1332 150° Southeast  Level FlightAware Approximate
Sun 02:53:00 PM 19.1539 -90.0964 150° Southeast  Level FlightAware Approximate
Sun 02:54:00 PM 19.0931 -90.0596 150° Southeast  Level FlightAware Approximate
Sun 02:55:00 PM 19.0324 -90.0228 150° Southeast  Level FlightAware Approximate
Sun 02:56:00 PM 18.9716 -89.9861 150° Southeast  Level FlightAware Approximate
Sun 02:57:00 PM 18.9109 -89.9493 150° Southeast  Level FlightAware Approximate
Sun 02:58:00 PM 18.8501 -89.9126 150° Southeast  Level FlightAware Approximate
Sun 02:59:00 PM 18.7894 -89.8760 150° Southeast  Level FlightAware Approximate
Sun 03:00:00 PM 18.7286 -89.8393 150° Southeast  Level FlightAware Approximate
Sun 03:01:00 PM 18.6678 -89.8027 150° Southeast  Level FlightAware Approximate
Sun 03:02:00 PM 18.6070 -89.7661 150° Southeast  Level FlightAware Approximate
Sun 03:03:00 PM 18.5462 -89.7296 150° Southeast  Level FlightAware Approximate
Sun 03:04:00 PM 18.4854 -89.6930 150° Southeast  Level FlightAware Approximate
Sun 03:05:00 PM 18.4245 -89.6565 150° Southeast  Level FlightAware Approximate
Sun 03:06:00 PM 18.3637 -89.6200 150° Southeast  Level FlightAware Approximate
Sun 03:07:00 PM 18.3029 -89.5836 150° Southeast  Level FlightAware Approximate
Sun 03:08:00 PM 18.2421 -89.5472 150° Southeast  Level FlightAware Approximate
Sun 03:09:00 PM 18.1812 -89.5108 150° Southeast  Level FlightAware Approximate
Sun 03:10:00 PM 18.1204 -89.4744 150° Southeast  Level FlightAware Approximate
Sun 03:11:00 PM 18.0595 -89.4380 150° Southeast  Level FlightAware Approximate
Sun 03:12:00 PM 17.9986 -89.4017 150° Southeast  Level FlightAware Approximate
Sun 03:13:00 PM 17.9378 -89.3654 150° Southeast  Level FlightAware Approximate
Sun 03:14:00 PM 17.8769 -89.3291 150° Southeast  Level FlightAware Approximate
Sun 03:15:00 PM 17.8160 -89.2929 150° Southeast  Level FlightAware Approximate
Sun 03:16:00 PM 17.7554 -89.2561 150° Southeast  Level FlightAware Approximate
Sun 03:17:00 PM 17.6949 -89.2191 150° Southeast  Level FlightAware Approximate
Sun 03:18:00 PM 17.6344 -89.1822 150° Southeast  Level FlightAware Approximate
Sun 03:19:00 PM 17.5739 -89.1453 150° Southeast  Level FlightAware Approximate
Sun 03:20:00 PM 17.5134 -89.1084 150° Southeast  Level FlightAware Approximate
Sun 03:21:00 PM 17.4529 -89.0715 150° Southeast  Level FlightAware Approximate
Sun 03:22:00 PM 17.3924 -89.0347 150° Southeast  Level FlightAware Approximate
Sun 03:23:00 PM 17.3319 -88.9978 150° Southeast  Level FlightAware Approximate
Sun 03:24:00 PM 17.2714 -88.9611 150° Southeast  Level FlightAware Approximate
Sun 03:25:00 PM 17.2108 -88.9243 150° Southeast  Level FlightAware Approximate
Sun 03:26:00 PM 17.1503 -88.8876 150° Southeast  Level FlightAware Approximate
Sun 03:27:00 PM 17.0897 -88.8508 150° Southeast  Level FlightAware Approximate
Sun 03:28:00 PM 17.0291 -88.8142 151° Southeast  Level FlightAware Approximate
Sun 03:29:00 PM 16.9682 -88.7782 151° Southeast  Level FlightAware Approximate
Sun 03:30:00 PM 16.9072 -88.7422 151° Southeast  Level FlightAware Approximate
Sun 03:31:00 PM 16.8463 -88.7063 151° Southeast  Level FlightAware Approximate
Sun 03:32:00 PM 16.7853 -88.6704 151° Southeast  Level FlightAware Approximate
Sun 03:33:00 PM 16.7243 -88.6345 151° Southeast  Level FlightAware Approximate
Sun 03:34:00 PM 16.6634 -88.5986 151° Southeast  Level FlightAware Approximate
Sun 03:35:00 PM 16.6024 -88.5628 151° Southeast  Level FlightAware Approximate
Sun 03:36:00 PM 16.5414 -88.5270 151° Southeast  Level FlightAware Approximate
Sun 03:37:00 PM 16.4804 -88.4912 151° Southeast  Level FlightAware Approximate
Sun 03:38:00 PM 16.4194 -88.4554 151° Southeast  Level FlightAware Approximate
Sun 03:39:00 PM 16.3584 -88.4197 151° Southeast  Level FlightAware Approximate
Sun 03:40:00 PM 16.2974 -88.3839 151° Southeast  Level FlightAware Approximate
Sun 03:41:00 PM 16.2364 -88.3482 151° Southeast  Level FlightAware Approximate
Sun 03:42:00 PM 16.1754 -88.3126 151° Southeast  Level FlightAware Approximate
Sun 03:43:00 PM 16.1143 -88.2769 151° Southeast  Level FlightAware Approximate
Sun 03:44:00 PM 16.0533 -88.2413 151° Southeast  Level FlightAware Approximate
Sun 03:45:00 PM 15.9922 -88.2056 151° Southeast  Level FlightAware Approximate
Sun 03:46:00 PM 15.9312 -88.1700 151° Southeast  Level FlightAware Approximate
Sun 03:47:00 PM 15.8701 -88.1345 151° Southeast  Level FlightAware Approximate
Sun 03:48:00 PM 15.8091 -88.0989 151° Southeast  Level FlightAware Approximate
Sun 03:49:00 PM 15.7480 -88.0634 151° Southeast  Level FlightAware Approximate
Sun 03:50:00 PM 15.6869 -88.0279 151° Southeast  Level FlightAware Approximate
Sun 03:51:00 PM 15.6259 -87.9924 151° Southeast  Level FlightAware Approximate
Sun 03:52:00 PM 15.5648 -87.9569 151° Southeast  Level FlightAware Approximate
Sun 03:53:00 PM 15.5037 -87.9215 151° Southeast  Level FlightAware Approximate
Sun 03:54:00 PM 15.4418 -87.8876 154° Southeast  Level FlightAware Approximate
Sun 03:55:00 PM 15.3788 -87.8560 154° Southeast  Level FlightAware Approximate
Sun 03:56:00 PM 15.3158 -87.8245 154° Southeast  Level FlightAware Approximate
Sun 03:57:00 PM 15.2521 -87.7944 156° South  Level FlightAware Approximate
Sun 03:58:00 PM 15.1883 -87.7647 156° South  Level FlightAware Approximate
Sun 03:59:00 PM 15.1244 -87.7351 156° South  Level FlightAware Approximate
Sun 04:00:00 PM 15.0605 -87.7054 156° South  Level FlightAware Approximate
Sun 04:01:00 PM 14.9967 -87.6758 156° South  Level FlightAware Approximate
Sun 04:02:00 PM 14.9328 -87.6462 156° South  Level FlightAware Approximate
Sun 04:03:00 PM 14.8689 -87.6166 156° South  Level FlightAware Approximate
Sun 04:04:00 PM 14.8050 -87.5870 156° South  Level FlightAware Approximate
Sun 04:05:00 PM 14.7411 -87.5575 156° South  Level FlightAware Approximate
Sun 04:06:00 PM 14.6772 -87.5279 156° South  Level FlightAware Approximate
Sun 04:07:00 PM 14.6134 -87.4984 156° South  Level FlightAware Approximate
Sun 04:08:00 PM 14.5495 -87.4689 156° South  Level FlightAware Approximate
Sun 04:09:00 PM 14.4856 -87.4395 156° South  Level FlightAware Approximate
Sun 04:10:00 PM 14.4217 -87.4100 156° South  Level FlightAware Approximate
Sun 04:11:00 PM 14.3580 -87.3799 155° Southeast  Level FlightAware Approximate
Sun 04:12:00 PM 14.2945 -87.3495 155° Southeast  Level FlightAware Approximate
Sun 04:13:00 PM 14.2310 -87.3191 155° Southeast  Level FlightAware Approximate
Sun 04:14:00 PM 14.1676 -87.2887 155° Southeast  Level FlightAware Approximate
Sun 04:15:00 PM 14.1041 -87.2584 155° Southeast  Level FlightAware Approximate
Sun 04:16:00 PM 14.0406 -87.2281 155° Southeast  Level FlightAware Approximate
Sun 04:17:00 PM 13.9783 -87.1951 151° Southeast  Level FlightAware Approximate
Sun 04:18:00 PM 13.9169 -87.1606 151° Southeast  Level FlightAware Approximate
Sun 04:19:00 PM 13.8555 -87.1261 151° Southeast  Level FlightAware Approximate
Sun 04:20:00 PM 13.7940 -87.0916 151° Southeast  Level FlightAware Approximate
Sun 04:21:00 PM 13.7326 -87.0571 151° Southeast  Level FlightAware Approximate
Sun 04:22:00 PM 13.6711 -87.0226 151° Southeast  Level FlightAware Approximate
Sun 04:23:00 PM 13.6096 -86.9882 151° Southeast  Level FlightAware Approximate
Sun 04:24:00 PM 13.5482 -86.9537 151° Southeast  Level FlightAware Approximate
Sun 04:25:00 PM 13.4867 -86.9193 151° Southeast  Level FlightAware Approximate
Sun 04:26:00 PM 13.4252 -86.8849 151° Southeast  Level FlightAware Approximate
Sun 04:27:00 PM 13.3638 -86.8505 151° Southeast  Level FlightAware Approximate
Sun 04:28:00 PM 13.3023 -86.8162 151° Southeast  Level FlightAware Approximate
Sun 04:29:00 PM 13.2408 -86.7819 151° Southeast  Level FlightAware Approximate
Sun 04:30:00 PM 13.1793 -86.7475 151° Southeast  Level FlightAware Approximate
Sun 04:31:00 PM 13.1178 -86.7132 151° Southeast  Level FlightAware Approximate
Sun 04:32:00 PM 13.0563 -86.6789 151° Southeast  Level FlightAware Approximate
Sun 04:33:00 PM 12.9948 -86.6447 152° Southeast  Level FlightAware Approximate
Sun 04:34:00 PM 12.9333 -86.6104 152° Southeast  Level FlightAware Approximate
Sun 04:35:00 PM 12.8717 -86.5762 152° Southeast  Level FlightAware Approximate
Sun 04:36:00 PM 12.8102 -86.5419 152° Southeast  Level FlightAware Approximate
Sun 04:37:00 PM 12.7487 -86.5078 152° Southeast  Level FlightAware Approximate
Sun 04:38:00 PM 12.6872 -86.4736 152° Southeast  Level FlightAware Approximate
Sun 04:39:00 PM 12.6257 -86.4394 152° Southeast  Level FlightAware Approximate
Sun 04:40:00 PM 12.5641 -86.4052 152° Southeast  Level FlightAware Approximate
Sun 04:41:00 PM 12.5026 -86.3711 152° Southeast  Level FlightAware Approximate
Sun 04:42:00 PM 12.4410 -86.3370 152° Southeast  Level FlightAware Approximate
Sun 04:43:00 PM 12.3795 -86.3029 152° Southeast  Level FlightAware Approximate
Sun 04:44:00 PM 12.3179 -86.2688 152° Southeast  Level FlightAware Approximate
Sun 04:45:00 PM 12.2564 -86.2347 152° Southeast  Level FlightAware Approximate
Sun 04:46:00 PM 12.1948 -86.2007 152° Southeast  Level FlightAware Approximate
Sun 04:47:00 PM 12.1333 -86.1666 138° Southeast  Level FlightAware Approximate
Sun 04:48:00 PM 12.0811 -86.1189 138° Southeast  Level FlightAware Approximate
Sun 04:49:00 PM 12.0289 -86.0712 138° Southeast  Level FlightAware Approximate
Sun 04:50:00 PM 11.9767 -86.0235 138° Southeast  Level FlightAware Approximate
Sun 04:51:00 PM 11.9245 -85.9759 138° Southeast  Level FlightAware Approximate
Sun 04:52:00 PM 11.8723 -85.9282 138° Southeast  Level FlightAware Approximate
Sun 04:53:00 PM 11.8201 -85.8806 138° Southeast  Level FlightAware Approximate
Sun 04:54:00 PM 11.7679 -85.8330 138° Southeast  Level FlightAware Approximate
Sun 04:55:00 PM 11.7156 -85.7855 138° Southeast  Level FlightAware Approximate
Sun 04:56:00 PM 11.6634 -85.7379 138° Southeast  Level FlightAware Approximate
Sun 04:57:00 PM 11.6111 -85.6904 138° Southeast  Level FlightAware Approximate
Sun 04:58:00 PM 11.5589 -85.6428 138° Southeast  Level FlightAware Approximate
Sun 04:59:00 PM 11.5066 -85.5953 138° Southeast  Level FlightAware Approximate
Sun 05:00:00 PM 11.4544 -85.5478 138° Southeast  Level FlightAware Approximate
Sun 05:01:00 PM 11.4021 -85.5004 138° Southeast  Level FlightAware Approximate
Sun 05:02:00 PM 11.3493 -85.4535 139° Southeast  Level FlightAware Approximate
Sun 05:03:00 PM 11.2962 -85.4070 139° Southeast  Level FlightAware Approximate
Sun 05:04:00 PM 11.2435 -85.3601 136° Southeast  Level FlightAware Approximate
Sun 05:05:00 PM 11.1935 -85.3102 136° Southeast  Level FlightAware Approximate
Sun 05:06:00 PM 11.1427 -85.2612 144° Southeast  Level FlightAware Approximate
Sun 05:07:00 PM 11.0863 -85.2189 144° Southeast  Level FlightAware Approximate
Sun 05:08:00 PM 11.0300 -85.1766 144° Southeast  Level FlightAware Approximate
Sun 05:09:00 PM 10.9785 -85.1285 136° Southeast  Level FlightAware Approximate
Sun 05:10:00 PM 10.9286 -85.0786 136° Southeast  Level FlightAware Approximate
Sun 05:11:00 PM 10.8783 -85.0290 139° Southeast  Level FlightAware Approximate
Sun 05:12:00 PM 10.8251 -84.9827 139° Southeast  Level FlightAware Approximate
Sun 05:13:00 PM 10.7719 -84.9364 139° Southeast  Level FlightAware Approximate
Sun 05:14:00 PM 10.7188 -84.8901 139° Southeast  Level FlightAware Approximate
Sun 05:15:00 PM 10.6655 -84.8438 139° Southeast  Level FlightAware Approximate
Sun 05:16:00 PM 10.6123 -84.7976 139° Southeast  Level FlightAware Approximate
Sun 05:17:00 PM 10.5591 -84.7513 139° Southeast  Level FlightAware Approximate
Sun 05:18:00 PM 10.5059 -84.7051 140° Southeast  Level FlightAware Approximate
Sun 05:19:00 PM 10.4556 -84.6556 135° Southeast  Level FlightAware Approximate
Sun 05:20:00 PM 10.4057 -84.6057 135° Southeast  Level FlightAware Approximate
Sun 05:21:00 PM 10.3523 -84.5600 144° Southeast  Level FlightAware Approximate
Sun 05:22:00 PM 10.2983 -84.5150 135° Southeast  Level FlightAware Approximate
Sun 05:23:00 PM 10.2485 -84.4651 135° Southeast  Level FlightAware Approximate
Sun 05:24:00 PM 10.1962 -84.4180 144° Southeast  Level FlightAware Approximate
Sun 05:25:00 PM 10.1399 -84.3758 144° Southeast  Level FlightAware Approximate
Sun 05:26:00 PM 10.0836 -84.3335 144° Southeast  Level FlightAware Approximate
Sun 05:27:00 PM 10.0454 -84.2787 135° Southeast  Level FlightAware Approximate
Sun 05:28:00 PM 9.9890 -84.2371 147° Southeast  Level FlightAware Approximate
Sun 05:29:00 PM 9.9587 -84.1770 101° East  Level FlightAware Approximate
Sun 05:30:00 PM 9.9500 -84.1333 101° East  Level FlightAware Approximate
Sun 05:31:00 PM 9.9571 -84.1398 101° East  Level Estimated
Sun 05:32:00 PM 9.9571 -84.1398 101° East  Level Estimated
Sun 05:33:00 PM 9.9571 -84.1398 101° East  Level Estimated
Sun 05:34:00 PM 9.9571 -84.1398 101° East  Level Estimated
Sun 05:35:00 PM 9.9571 -84.1398 101° East  Level Estimated
Sun 05:36:00 PM 9.9571 -84.1398 101° East  Level Estimated
Sun 05:37:00 PM 9.9571 -84.1398 101° East  Level Estimated

Login

Don't have an account? Register now (free) for customized features, flight alerts, and more!